sensor_id;sensor_type;location;lat;lon;timestamp;temperature;humidity
16301;DHT22;8258;51.020;4.248;2023-07-28T01:48:45;17.70;99.90
16301;DHT22;8258;51.020;4.248;2023-07-28T01:58:58;17.70;99.90
16301;DHT22;8258;51.020;4.248;2023-07-28T02:04:02;17.80;99.90
16301;DHT22;8258;51.020;4.248;2023-07-28T02:06:29;17.80;99.90
16301;DHT22;8258;51.020;4.248;2023-07-28T02:08:56;17.70;99.90
16301;DHT22;8258;51.020;4.248;2023-07-28T02:11:23;17.80;99.90
16301;DHT22;8258;51.020;4.248;2023-07-28T02:29:24;17.80;99.90
16301;DHT22;8258;51.020;4.248;2023-07-28T02:34:26;17.80;99.90
16301;DHT22;8258;51.020;4.248;2023-07-28T02:36:53;17.80;99.90
16301;DHT22;8258;51.020;4.248;2023-07-28T02:39:20;17.80;99.90
16301;DHT22;8258;51.020;4.248;2023-07-28T02:41:47;17.80;99.90
16301;DHT22;8258;51.020;4.248;2023-07-28T02:44:14;17.80;99.90
16301;DHT22;8258;51.020;4.248;2023-07-28T03:28:02;17.90;99.90
16301;DHT22;8258;51.020;4.248;2023-07-28T03:30:29;17.90;99.90
16301;DHT22;8258;51.020;4.248;2023-07-28T03:32:56;17.90;99.90
16301;DHT22;8258;51.020;4.248;2023-07-28T03:35:23;17.90;99.90
16301;DHT22;8258;51.020;4.248;2023-07-28T03:37:50;17.90;99.90
16301;DHT22;8258;51.020;4.248;2023-07-28T03:40:17;17.90;99.90
16301;DHT22;8258;51.020;4.248;2023-07-28T03:47:56;17.90;99.90
16301;DHT22;8258;51.020;4.248;2023-07-28T03:50:23;17.90;99.90
16301;DHT22;8258;51.020;4.248;2023-07-28T03:52:52;17.90;99.90
16301;DHT22;8258;51.020;4.248;2023-07-28T04:00:29;17.90;99.90
16301;DHT22;8258;51.020;4.248;2023-07-28T04:02:58;17.90;99.90
16301;DHT22;8258;51.020;4.248;2023-07-28T04:05:25;17.90;99.90
16301;DHT22;8258;51.020;4.248;2023-07-28T04:07:52;17.90;99.90
16301;DHT22;8258;51.020;4.248;2023-07-28T04:10:19;17.90;99.90
16301;DHT22;8258;51.020;4.248;2023-07-28T04:12:46;17.90;99.90
16301;DHT22;8258;51.020;4.248;2023-07-28T04:15:13;17.90;99.90
16301;DHT22;8258;51.020;4.248;2023-07-28T04:25:27;17.90;99.90
16301;DHT22;8258;51.020;4.248;2023-07-28T04:27:54;17.90;99.90
16301;DHT22;8258;51.020;4.248;2023-07-28T04:30:22;17.90;99.90
16301;DHT22;8258;51.020;4.248;2023-07-28T04:32:49;17.90;99.90
16301;DHT22;8258;51.020;4.248;2023-07-28T04:37:51;17.90;99.90
16301;DHT22;8258;51.020;4.248;2023-07-28T04:40:19;17.90;99.90
16301;DHT22;8258;51.020;4.248;2023-07-28T05:19:05;18.20;99.90
16301;DHT22;8258;51.020;4.248;2023-07-28T05:21:32;18.20;99.90
16301;DHT22;8258;51.020;4.248;2023-07-28T05:23:59;18.20;99.90
16301;DHT22;8258;51.020;4.248;2023-07-28T05:26:26;18.20;99.90
16301;DHT22;8258;51.020;4.248;2023-07-28T05:28:53;18.30;99.90
16301;DHT22;8258;51.020;4.248;2023-07-28T05:31:20;18.30;99.90
16301;DHT22;8258;51.020;4.248;2023-07-28T05:33:47;18.40;99.90
16301;DHT22;8258;51.020;4.248;2023-07-28T05:41:27;18.30;99.90
16301;DHT22;8258;51.020;4.248;2023-07-28T05:46:29;18.40;99.90
16301;DHT22;8258;51.020;4.248;2023-07-28T05:48:56;18.50;99.90
16301;DHT22;8258;51.020;4.248;2023-07-28T05:51:23;18.50;99.90
16301;DHT22;8258;51.020;4.248;2023-07-28T05:53:50;18.60;99.90
16301;DHT22;8258;51.020;4.248;2023-07-28T05:56:17;18.70;99.90
16301;DHT22;8258;51.020;4.248;2023-07-28T06:06:32;18.90;99.90
16301;DHT22;8258;51.020;4.248;2023-07-28T06:08:59;19.00;99.90
16301;DHT22;8258;51.020;4.248;2023-07-28T06:11:26;19.10;99.90
16301;DHT22;8258;51.020;4.248;2023-07-28T06:13:53;19.10;99.90
16301;DHT22;8258;51.020;4.248;2023-07-28T06:16:20;19.20;99.90
16301;DHT22;8258;51.020;4.248;2023-07-28T06:18:47;19.20;99.90
16301;DHT22;8258;51.020;4.248;2023-07-28T06:21:14;19.30;99.90
16301;DHT22;8258;51.020;4.248;2023-07-28T06:23:43;19.30;99.90
16301;DHT22;8258;51.020;4.248;2023-07-28T06:26:10;19.30;99.90
16301;DHT22;8258;51.020;4.248;2023-07-28T06:28:37;19.30;99.90
16301;DHT22;8258;51.020;4.248;2023-07-28T06:31:04;19.40;99.90
16301;DHT22;8258;51.020;4.248;2023-07-28T06:33:31;19.50;99.90
16301;DHT22;8258;51.020;4.248;2023-07-28T06:35:58;19.70;99.90
16301;DHT22;8258;51.020;4.248;2023-07-28T06:38:25;19.70;99.90
16301;DHT22;8258;51.020;4.248;2023-07-28T06:40:54;19.90;99.90
16301;DHT22;8258;51.020;4.248;2023-07-28T06:43:21;19.90;99.90
16301;DHT22;8258;51.020;4.248;2023-07-28T06:45:50;19.80;99.90
16301;DHT22;8258;51.020;4.248;2023-07-28T06:48:17;19.80;99.90
16301;DHT22;8258;51.020;4.248;2023-07-28T06:50:44;19.80;99.90
16301;DHT22;8258;51.020;4.248;2023-07-28T06:53:11;19.90;99.90
16301;DHT22;8258;51.020;4.248;2023-07-28T06:55:38;20.00;99.90
16301;DHT22;8258;51.020;4.248;2023-07-28T06:58:07;19.90;99.90
16301;DHT22;8258;51.020;4.248;2023-07-28T07:00:35;20.10;99.90
16301;DHT22;8258;51.020;4.248;2023-07-28T07:03:02;20.30;99.90
16301;DHT22;8258;51.020;4.248;2023-07-28T07:05:29;20.80;99.90
16301;DHT22;8258;51.020;4.248;2023-07-28T07:07:56;21.30;99.90
16301;DHT22;8258;51.020;4.248;2023-07-28T07:10:23;21.30;99.90
16301;DHT22;8258;51.020;4.248;2023-07-28T07:12:50;21.40;99.90
16301;DHT22;8258;51.020;4.248;2023-07-28T07:15:19;21.40;99.90
16301;DHT22;8258;51.020;4.248;2023-07-28T07:17:46;21.90;99.90
16301;DHT22;8258;51.020;4.248;2023-07-28T07:20:13;22.40;99.90
16301;DHT22;8258;51.020;4.248;2023-07-28T07:22:41;22.80;99.90
16301;DHT22;8258;51.020;4.248;2023-07-28T07:25:08;22.40;99.90
16301;DHT22;8258;51.020;4.248;2023-07-28T07:27:35;22.90;99.90
16301;DHT22;8258;51.020;4.248;2023-07-28T07:30:02;22.90;99.90
16301;DHT22;8258;51.020;4.248;2023-07-28T07:32:32;22.80;99.90
16301;DHT22;8258;51.020;4.248;2023-07-28T07:34:59;22.50;99.90
16301;DHT22;8258;51.020;4.248;2023-07-28T07:37:27;22.30;99.90
16301;DHT22;8258;51.020;4.248;2023-07-28T07:39:54;22.10;99.90
16301;DHT22;8258;51.020;4.248;2023-07-28T07:42:21;22.20;99.90
16301;DHT22;8258;51.020;4.248;2023-07-28T07:44:48;22.10;99.90
16301;DHT22;8258;51.020;4.248;2023-07-28T07:47:15;22.10;99.90
16301;DHT22;8258;51.020;4.248;2023-07-28T07:49:44;22.10;99.90
16301;DHT22;8258;51.020;4.248;2023-07-28T07:52:11;22.40;99.90
16301;DHT22;8258;51.020;4.248;2023-07-28T07:54:38;22.10;99.90
16301;DHT22;8258;51.020;4.248;2023-07-28T07:57:05;22.00;99.90
16301;DHT22;8258;51.020;4.248;2023-07-28T07:59:32;22.00;99.90
16301;DHT22;8258;51.020;4.248;2023-07-28T08:01:59;22.20;99.90
16301;DHT22;8258;51.020;4.248;2023-07-28T08:04:29;22.10;99.90
16301;DHT22;8258;51.020;4.248;2023-07-28T08:06:58;22.10;99.90
16301;DHT22;8258;51.020;4.248;2023-07-28T08:09:25;22.20;99.90
16301;DHT22;8258;51.020;4.248;2023-07-28T08:11:53;22.10;99.90
16301;DHT22;8258;51.020;4.248;2023-07-28T08:14:21;22.10;99.90
16301;DHT22;8258;51.020;4.248;2023-07-28T08:16:48;21.90;99.90
16301;DHT22;8258;51.020;4.248;2023-07-28T08:19:15;21.90;99.90
16301;DHT22;8258;51.020;4.248;2023-07-28T08:21:43;22.00;99.90
16301;DHT22;8258;51.020;4.248;2023-07-28T08:24:11;21.70;99.90
16301;DHT22;8258;51.020;4.248;2023-07-28T08:26:38;21.60;99.90
16301;DHT22;8258;51.020;4.248;2023-07-28T08:29:05;21.60;99.90
16301;DHT22;8258;51.020;4.248;2023-07-28T08:31:32;21.80;99.90
16301;DHT22;8258;51.020;4.248;2023-07-28T08:33:59;21.80;99.90
16301;DHT22;8258;51.020;4.248;2023-07-28T08:36:26;21.80;99.90
16301;DHT22;8258;51.020;4.248;2023-07-28T08:38:53;21.90;99.90
16301;DHT22;8258;51.020;4.248;2023-07-28T08:41:21;21.90;99.90
16301;DHT22;8258;51.020;4.248;2023-07-28T08:43:48;21.90;99.90
16301;DHT22;8258;51.020;4.248;2023-07-28T08:46:16;21.90;99.90
16301;DHT22;8258;51.020;4.248;2023-07-28T08:48:43;21.90;99.90
16301;DHT22;8258;51.020;4.248;2023-07-28T08:51:12;22.10;99.90
16301;DHT22;8258;51.020;4.248;2023-07-28T08:53:39;22.20;99.90
16301;DHT22;8258;51.020;4.248;2023-07-28T08:56:06;22.50;99.90
16301;DHT22;8258;51.020;4.248;2023-07-28T08:58:36;22.70;99.90
16301;DHT22;8258;51.020;4.248;2023-07-28T09:01:06;22.80;99.90
16301;DHT22;8258;51.020;4.248;2023-07-28T09:03:33;22.90;99.90
16301;DHT22;8258;51.020;4.248;2023-07-28T09:06:03;23.00;99.90
16301;DHT22;8258;51.020;4.248;2023-07-28T09:08:31;23.10;99.90
16301;DHT22;8258;51.020;4.248;2023-07-28T09:11:02;23.00;99.90
16301;DHT22;8258;51.020;4.248;2023-07-28T09:13:37;22.90;99.90
16301;DHT22;8258;51.020;4.248;2023-07-28T09:16:05;22.80;99.90
16301;DHT22;8258;51.020;4.248;2023-07-28T09:18:32;23.50;99.90
16301;DHT22;8258;51.020;4.248;2023-07-28T09:20:59;24.10;99.90
16301;DHT22;8258;51.020;4.248;2023-07-28T09:23:29;23.90;99.90
16301;DHT22;8258;51.020;4.248;2023-07-28T09:25:59;24.00;99.90
16301;DHT22;8258;51.020;4.248;2023-07-28T09:28:37;24.40;99.90
16301;DHT22;8258;51.020;4.248;2023-07-28T09:31:05;24.20;99.90
16301;DHT22;8258;51.020;4.248;2023-07-28T09:33:34;23.80;99.90
16301;DHT22;8258;51.020;4.248;2023-07-28T09:36:09;23.40;99.90
16301;DHT22;8258;51.020;4.248;2023-07-28T09:38:38;23.10;99.90
16301;DHT22;8258;51.020;4.248;2023-07-28T09:41:07;22.70;99.90
16301;DHT22;8258;51.020;4.248;2023-07-28T09:43:37;22.30;99.90
16301;DHT22;8258;51.020;4.248;2023-07-28T09:46:06;22.10;99.90
16301;DHT22;8258;51.020;4.248;2023-07-28T09:48:33;21.90;99.90
16301;DHT22;8258;51.020;4.248;2023-07-28T09:51:05;21.80;99.90
16301;DHT22;8258;51.020;4.248;2023-07-28T09:53:38;21.90;99.90
16301;DHT22;8258;51.020;4.248;2023-07-28T09:56:08;21.80;99.90
16301;DHT22;8258;51.020;4.248;2023-07-28T09:58:41;21.60;99.90
16301;DHT22;8258;51.020;4.248;2023-07-28T10:01:11;21.50;99.90
16301;DHT22;8258;51.020;4.248;2023-07-28T10:03:39;21.30;99.90
16301;DHT22;8258;51.020;4.248;2023-07-28T10:06:06;21.10;99.90
16301;DHT22;8258;51.020;4.248;2023-07-28T10:08:33;21.00;99.90
16301;DHT22;8258;51.020;4.248;2023-07-28T10:11:01;20.90;99.90
16301;DHT22;8258;51.020;4.248;2023-07-28T10:13:40;21.00;99.90
16301;DHT22;8258;51.020;4.248;2023-07-28T10:16:09;21.10;99.90
16301;DHT22;8258;51.020;4.248;2023-07-28T10:18:36;21.40;99.90
16301;DHT22;8258;51.020;4.248;2023-07-28T10:21:05;22.10;99.90
16301;DHT22;8258;51.020;4.248;2023-07-28T10:23:34;23.00;99.90
16301;DHT22;8258;51.020;4.248;2023-07-28T10:26:02;23.70;99.90
16301;DHT22;8258;51.020;4.248;2023-07-28T10:28:32;23.80;99.90
16301;DHT22;8258;51.020;4.248;2023-07-28T10:31:06;23.40;99.90
16301;DHT22;8258;51.020;4.248;2023-07-28T10:33:34;22.70;99.90
16301;DHT22;8258;51.020;4.248;2023-07-28T10:36:12;22.30;99.90
16301;DHT22;8258;51.020;4.248;2023-07-28T10:38:40;21.80;99.90
16301;DHT22;8258;51.020;4.248;2023-07-28T10:41:14;21.50;99.90
16301;DHT22;8258;51.020;4.248;2023-07-28T10:43:42;21.50;99.90
16301;DHT22;8258;51.020;4.248;2023-07-28T10:46:11;21.50;99.90
16301;DHT22;8258;51.020;4.248;2023-07-28T10:48:42;21.60;99.90
16301;DHT22;8258;51.020;4.248;2023-07-28T10:51:09;22.10;99.90
16301;DHT22;8258;51.020;4.248;2023-07-28T10:53:38;22.70;99.90
16301;DHT22;8258;51.020;4.248;2023-07-28T10:56:05;22.70;99.90
16301;DHT22;8258;51.020;4.248;2023-07-28T10:58:34;22.40;99.90
16301;DHT22;8258;51.020;4.248;2023-07-28T11:01:02;22.20;99.90
16301;DHT22;8258;51.020;4.248;2023-07-28T11:03:31;22.00;99.90
16301;DHT22;8258;51.020;4.248;2023-07-28T11:05:59;22.00;99.90
16301;DHT22;8258;51.020;4.248;2023-07-28T11:08:26;22.00;99.90
16301;DHT22;8258;51.020;4.248;2023-07-28T11:10:53;21.90;99.90
16301;DHT22;8258;51.020;4.248;2023-07-28T11:13:22;22.10;99.90
16301;DHT22;8258;51.020;4.248;2023-07-28T11:15:51;22.80;99.90
16301;DHT22;8258;51.020;4.248;2023-07-28T11:18:18;24.00;99.90
16301;DHT22;8258;51.020;4.248;2023-07-28T11:20:46;24.20;99.90
16301;DHT22;8258;51.020;4.248;2023-07-28T11:23:14;23.90;99.90
16301;DHT22;8258;51.020;4.248;2023-07-28T11:25:43;23.40;99.90
16301;DHT22;8258;51.020;4.248;2023-07-28T11:28:13;23.30;99.90
16301;DHT22;8258;51.020;4.248;2023-07-28T11:30:40;23.80;99.90
16301;DHT22;8258;51.020;4.248;2023-07-28T11:33:09;24.80;99.90
16301;DHT22;8258;51.020;4.248;2023-07-28T11:35:37;25.50;99.90
16301;DHT22;8258;51.020;4.248;2023-07-28T11:38:05;26.20;99.90
16301;DHT22;8258;51.020;4.248;2023-07-28T11:40:33;27.20;99.90
16301;DHT22;8258;51.020;4.248;2023-07-28T11:43:01;27.30;99.90
16301;DHT22;8258;51.020;4.248;2023-07-28T11:45:29;26.70;99.90
16301;DHT22;8258;51.020;4.248;2023-07-28T11:47:57;25.80;99.90
16301;DHT22;8258;51.020;4.248;2023-07-28T11:50:26;25.70;99.90
16301;DHT22;8258;51.020;4.248;2023-07-28T11:52:53;25.50;99.90
16301;DHT22;8258;51.020;4.248;2023-07-28T11:55:23;25.10;99.90
16301;DHT22;8258;51.020;4.248;2023-07-28T11:57:51;25.70;99.90
16301;DHT22;8258;51.020;4.248;2023-07-28T12:00:19;26.60;99.90
16301;DHT22;8258;51.020;4.248;2023-07-28T12:26:12;25.30;99.90
16301;DHT22;8258;51.020;4.248;2023-07-28T12:28:39;24.60;99.90
16301;DHT22;8258;51.020;4.248;2023-07-28T12:31:06;24.30;99.90
16301;DHT22;8258;51.020;4.248;2023-07-28T12:33:33;24.10;99.90
16301;DHT22;8258;51.020;4.248;2023-07-28T12:36:00;24.10;99.90
16301;DHT22;8258;51.020;4.248;2023-07-28T12:38:27;24.00;99.90
16301;DHT22;8258;51.020;4.248;2023-07-28T12:40:54;24.40;99.90
16301;DHT22;8258;51.020;4.248;2023-07-28T12:43:22;24.90;99.90
16301;DHT22;8258;51.020;4.248;2023-07-28T12:45:50;25.00;99.90
16301;DHT22;8258;51.020;4.248;2023-07-28T12:48:17;25.00;99.90
16301;DHT22;8258;51.020;4.248;2023-07-28T12:50:44;24.40;99.90
16301;DHT22;8258;51.020;4.248;2023-07-28T12:53:12;24.00;99.90
16301;DHT22;8258;51.020;4.248;2023-07-28T12:55:39;23.70;99.90
16301;DHT22;8258;51.020;4.248;2023-07-28T12:58:05;23.40;99.90
16301;DHT22;8258;51.020;4.248;2023-07-28T13:00:34;23.20;99.90
16301;DHT22;8258;51.020;4.248;2023-07-28T13:03:01;23.30;99.90
16301;DHT22;8258;51.020;4.248;2023-07-28T13:05:28;23.60;99.90
16301;DHT22;8258;51.020;4.248;2023-07-28T13:07:55;24.10;99.90
16301;DHT22;8258;51.020;4.248;2023-07-28T13:10:21;25.00;99.90
16301;DHT22;8258;51.020;4.248;2023-07-28T13:12:48;27.00;99.90
16301;DHT22;8258;51.020;4.248;2023-07-28T13:15:15;29.20;99.90
16301;DHT22;8258;51.020;4.248;2023-07-28T13:17:44;29.90;99.90
16301;DHT22;8258;51.020;4.248;2023-07-28T13:20:11;29.90;99.90
16301;DHT22;8258;51.020;4.248;2023-07-28T13:22:38;29.90;99.90
16301;DHT22;8258;51.020;4.248;2023-07-28T13:25:05;29.60;99.90
16301;DHT22;8258;51.020;4.248;2023-07-28T13:27:32;29.50;99.90
16301;DHT22;8258;51.020;4.248;2023-07-28T13:29:59;30.00;99.90
16301;DHT22;8258;51.020;4.248;2023-07-28T13:32:26;30.00;99.90
16301;DHT22;8258;51.020;4.248;2023-07-28T13:34:54;29.40;99.90
16301;DHT22;8258;51.020;4.248;2023-07-28T13:37:21;28.40;99.90
16301;DHT22;8258;51.020;4.248;2023-07-28T13:39:48;27.90;99.90
16301;DHT22;8258;51.020;4.248;2023-07-28T13:42:17;27.70;99.90
16301;DHT22;8258;51.020;4.248;2023-07-28T13:44:44;27.90;99.90
16301;DHT22;8258;51.020;4.248;2023-07-28T13:47:11;27.90;99.90
16301;DHT22;8258;51.020;4.248;2023-07-28T13:49:38;27.80;99.90
16301;DHT22;8258;51.020;4.248;2023-07-28T13:52:07;27.90;99.90
16301;DHT22;8258;51.020;4.248;2023-07-28T13:54:34;27.90;99.90
16301;DHT22;8258;51.020;4.248;2023-07-28T13:57:01;27.60;99.90
16301;DHT22;8258;51.020;4.248;2023-07-28T13:59:28;26.90;99.90
16301;DHT22;8258;51.020;4.248;2023-07-28T14:01:55;26.30;99.90
16301;DHT22;8258;51.020;4.248;2023-07-28T14:04:23;25.90;99.90
16301;DHT22;8258;51.020;4.248;2023-07-28T14:06:50;25.20;99.90
16301;DHT22;8258;51.020;4.248;2023-07-28T14:09:18;24.80;99.90
16301;DHT22;8258;51.020;4.248;2023-07-28T14:11:46;24.60;99.90
16301;DHT22;8258;51.020;4.248;2023-07-28T14:14:12;24.50;99.90
16301;DHT22;8258;51.020;4.248;2023-07-28T14:16:39;24.70;99.90
16301;DHT22;8258;51.020;4.248;2023-07-28T14:19:08;25.50;99.90
16301;DHT22;8258;51.020;4.248;2023-07-28T14:21:35;26.00;99.90
16301;DHT22;8258;51.020;4.248;2023-07-28T14:24:04;26.30;99.90
16301;DHT22;8258;51.020;4.248;2023-07-28T14:26:32;26.80;99.90
16301;DHT22;8258;51.020;4.248;2023-07-28T14:28:59;26.90;99.90
16301;DHT22;8258;51.020;4.248;2023-07-28T14:31:26;27.10;99.90
16301;DHT22;8258;51.020;4.248;2023-07-28T14:33:53;27.40;99.90
16301;DHT22;8258;51.020;4.248;2023-07-28T14:36:20;27.50;99.90
16301;DHT22;8258;51.020;4.248;2023-07-28T14:38:47;28.10;99.90
16301;DHT22;8258;51.020;4.248;2023-07-28T14:41:14;29.50;99.90
16301;DHT22;8258;51.020;4.248;2023-07-28T14:43:42;30.40;99.90
16301;DHT22;8258;51.020;4.248;2023-07-28T14:46:09;30.70;99.90
16301;DHT22;8258;51.020;4.248;2023-07-28T14:48:37;31.20;99.90
16301;DHT22;8258;51.020;4.248;2023-07-28T14:51:03;31.10;99.90
16301;DHT22;8258;51.020;4.248;2023-07-28T14:53:32;29.90;99.90
16301;DHT22;8258;51.020;4.248;2023-07-28T14:55:59;29.20;99.90
16301;DHT22;8258;51.020;4.248;2023-07-28T14:58:27;28.40;99.90
16301;DHT22;8258;51.020;4.248;2023-07-28T15:00:56;30.00;99.90
16301;DHT22;8258;51.020;4.248;2023-07-28T15:03:26;31.50;99.90
16301;DHT22;8258;51.020;4.248;2023-07-28T15:05:53;31.40;99.90
16301;DHT22;8258;51.020;4.248;2023-07-28T15:08:20;31.40;99.80
16301;DHT22;8258;51.020;4.248;2023-07-28T15:10:47;31.70;99.00
16301;DHT22;8258;51.020;4.248;2023-07-28T15:13:14;32.00;97.90
16301;DHT22;8258;51.020;4.248;2023-07-28T15:15:41;32.20;97.00
16301;DHT22;8258;51.020;4.248;2023-07-28T15:18:09;32.20;95.80
16301;DHT22;8258;51.020;4.248;2023-07-28T15:20:37;32.20;95.70
16301;DHT22;8258;51.020;4.248;2023-07-28T15:23:04;30.60;97.60
16301;DHT22;8258;51.020;4.248;2023-07-28T15:25:31;29.30;99.90
16301;DHT22;8258;51.020;4.248;2023-07-28T15:27:58;28.30;99.90
16301;DHT22;8258;51.020;4.248;2023-07-28T15:30:25;28.10;99.90
16301;DHT22;8258;51.020;4.248;2023-07-28T15:32:52;29.80;99.90
16301;DHT22;8258;51.020;4.248;2023-07-28T15:35:20;30.70;99.90
16301;DHT22;8258;51.020;4.248;2023-07-28T15:37:47;31.20;98.90
16301;DHT22;8258;51.020;4.248;2023-07-28T15:40:15;30.20;99.90
16301;DHT22;8258;51.020;4.248;2023-07-28T15:42:42;30.00;99.90
16301;DHT22;8258;51.020;4.248;2023-07-28T15:45:09;29.40;99.90
16301;DHT22;8258;51.020;4.248;2023-07-28T15:47:36;28.40;99.90
16301;DHT22;8258;51.020;4.248;2023-07-28T15:50:04;28.00;99.90
16301;DHT22;8258;51.020;4.248;2023-07-28T15:52:32;28.50;99.90
16301;DHT22;8258;51.020;4.248;2023-07-28T15:55:00;29.50;99.90
16301;DHT22;8258;51.020;4.248;2023-07-28T15:57:29;29.30;99.90
16301;DHT22;8258;51.020;4.248;2023-07-28T15:59:56;28.60;99.90
16301;DHT22;8258;51.020;4.248;2023-07-28T16:02:22;28.50;99.90
16301;DHT22;8258;51.020;4.248;2023-07-28T16:04:50;28.30;99.90
16301;DHT22;8258;51.020;4.248;2023-07-28T16:07:16;28.00;99.90
16301;DHT22;8258;51.020;4.248;2023-07-28T16:09:45;27.50;99.90
16301;DHT22;8258;51.020;4.248;2023-07-28T16:12:12;27.10;99.90
16301;DHT22;8258;51.020;4.248;2023-07-28T16:14:39;26.80;99.90
16301;DHT22;8258;51.020;4.248;2023-07-28T16:17:06;26.40;99.90
16301;DHT22;8258;51.020;4.248;2023-07-28T16:19:33;26.00;99.90
16301;DHT22;8258;51.020;4.248;2023-07-28T16:22:00;25.80;99.90
16301;DHT22;8258;51.020;4.248;2023-07-28T16:24:27;25.70;99.90
16301;DHT22;8258;51.020;4.248;2023-07-28T16:26:55;25.60;99.90
16301;DHT22;8258;51.020;4.248;2023-07-28T16:29:22;25.60;99.90
16301;DHT22;8258;51.020;4.248;2023-07-28T16:31:50;26.00;99.90
16301;DHT22;8258;51.020;4.248;2023-07-28T16:34:17;26.40;99.90
16301;DHT22;8258;51.020;4.248;2023-07-28T16:36:44;26.30;99.90
16301;DHT22;8258;51.020;4.248;2023-07-28T16:39:11;25.90;99.90
16301;DHT22;8258;51.020;4.248;2023-07-28T16:41:40;25.70;99.90
16301;DHT22;8258;51.020;4.248;2023-07-28T16:44:10;25.50;99.90
16301;DHT22;8258;51.020;4.248;2023-07-28T16:46:37;25.40;99.90
16301;DHT22;8258;51.020;4.248;2023-07-28T16:49:04;25.40;99.90
16301;DHT22;8258;51.020;4.248;2023-07-28T16:51:31;25.30;99.90
16301;DHT22;8258;51.020;4.248;2023-07-28T16:53:58;25.20;99.90
16301;DHT22;8258;51.020;4.248;2023-07-28T16:56:25;25.20;99.90
16301;DHT22;8258;51.020;4.248;2023-07-28T16:58:52;25.30;99.90
16301;DHT22;8258;51.020;4.248;2023-07-28T17:01:21;25.40;99.90
16301;DHT22;8258;51.020;4.248;2023-07-28T17:03:48;25.30;99.90
16301;DHT22;8258;51.020;4.248;2023-07-28T17:06:15;25.20;99.90
16301;DHT22;8258;51.020;4.248;2023-07-28T17:08:42;25.00;99.90
16301;DHT22;8258;51.020;4.248;2023-07-28T17:11:09;25.00;99.90
16301;DHT22;8258;51.020;4.248;2023-07-28T17:13:36;25.00;99.90
16301;DHT22;8258;51.020;4.248;2023-07-28T17:16:03;25.00;99.90
16301;DHT22;8258;51.020;4.248;2023-07-28T17:18:31;24.90;99.90
16301;DHT22;8258;51.020;4.248;2023-07-28T17:20:59;25.20;99.90
16301;DHT22;8258;51.020;4.248;2023-07-28T17:23:26;25.60;99.90
16301;DHT22;8258;51.020;4.248;2023-07-28T17:25:53;25.60;99.90
16301;DHT22;8258;51.020;4.248;2023-07-28T17:28:20;25.60;99.90
16301;DHT22;8258;51.020;4.248;2023-07-28T17:30:47;25.60;99.90
16301;DHT22;8258;51.020;4.248;2023-07-28T17:33:14;25.50;99.90
16301;DHT22;8258;51.020;4.248;2023-07-28T17:35:42;25.30;99.90
16301;DHT22;8258;51.020;4.248;2023-07-28T17:38:10;25.10;99.90
16301;DHT22;8258;51.020;4.248;2023-07-28T17:40:37;25.00;99.90
16301;DHT22;8258;51.020;4.248;2023-07-28T17:43:04;25.20;99.90
16301;DHT22;8258;51.020;4.248;2023-07-28T17:45:31;25.30;99.90
16301;DHT22;8258;51.020;4.248;2023-07-28T17:47:59;25.40;99.90
16301;DHT22;8258;51.020;4.248;2023-07-28T17:50:26;25.40;99.90
16301;DHT22;8258;51.020;4.248;2023-07-28T17:52:55;25.20;99.90
16301;DHT22;8258;51.020;4.248;2023-07-28T17:55:22;25.00;99.90
16301;DHT22;8258;51.020;4.248;2023-07-28T17:57:49;24.80;99.90
16301;DHT22;8258;51.020;4.248;2023-07-28T18:00:16;24.60;99.90
16301;DHT22;8258;51.020;4.248;2023-07-28T18:02:43;24.50;99.90
16301;DHT22;8258;51.020;4.248;2023-07-28T18:05:10;24.30;99.90
16301;DHT22;8258;51.020;4.248;2023-07-28T18:07:37;24.30;99.90
16301;DHT22;8258;51.020;4.248;2023-07-28T18:10:06;24.30;99.90
16301;DHT22;8258;51.020;4.248;2023-07-28T18:12:33;24.20;99.90
16301;DHT22;8258;51.020;4.248;2023-07-28T18:15:00;24.10;99.90
16301;DHT22;8258;51.020;4.248;2023-07-28T18:17:27;24.00;99.90
16301;DHT22;8258;51.020;4.248;2023-07-28T18:19:54;23.90;99.90
16301;DHT22;8258;51.020;4.248;2023-07-28T18:22:21;23.80;99.90
16301;DHT22;8258;51.020;4.248;2023-07-28T18:24:48;23.80;99.90
16301;DHT22;8258;51.020;4.248;2023-07-28T18:27:16;23.90;99.90
16301;DHT22;8258;51.020;4.248;2023-07-28T18:29:43;24.00;99.90
16301;DHT22;8258;51.020;4.248;2023-07-28T18:32:10;24.10;99.90
16301;DHT22;8258;51.020;4.248;2023-07-28T18:34:37;24.00;99.90
16301;DHT22;8258;51.020;4.248;2023-07-28T18:37:04;23.90;99.90
16301;DHT22;8258;51.020;4.248;2023-07-28T18:39:31;23.80;99.90
16301;DHT22;8258;51.020;4.248;2023-07-28T18:41:59;23.70;99.90
16301;DHT22;8258;51.020;4.248;2023-07-28T18:44:28;23.60;99.90
16301;DHT22;8258;51.020;4.248;2023-07-28T18:46:55;23.60;99.90
16301;DHT22;8258;51.020;4.248;2023-07-28T18:49:22;23.60;99.90
16301;DHT22;8258;51.020;4.248;2023-07-28T18:51:49;23.40;99.90
16301;DHT22;8258;51.020;4.248;2023-07-28T18:54:16;23.40;99.90
16301;DHT22;8258;51.020;4.248;2023-07-28T18:56:43;23.30;99.90
16301;DHT22;8258;51.020;4.248;2023-07-28T18:59:10;23.20;99.90
16301;DHT22;8258;51.020;4.248;2023-07-28T19:01:39;23.10;99.90
16301;DHT22;8258;51.020;4.248;2023-07-28T19:04:06;22.90;99.90
16301;DHT22;8258;51.020;4.248;2023-07-28T19:06:33;22.70;99.90
16301;DHT22;8258;51.020;4.248;2023-07-28T19:09:00;22.70;99.90
16301;DHT22;8258;51.020;4.248;2023-07-28T19:11:26;22.60;99.90
16301;DHT22;8258;51.020;4.248;2023-07-28T19:13:53;22.50;99.90
16301;DHT22;8258;51.020;4.248;2023-07-28T19:16:21;22.40;99.90
16301;DHT22;8258;51.020;4.248;2023-07-28T19:18:50;22.30;99.90
16301;DHT22;8258;51.020;4.248;2023-07-28T19:21:18;22.20;99.90
16301;DHT22;8258;51.020;4.248;2023-07-28T19:23:46;22.20;99.90
16301;DHT22;8258;51.020;4.248;2023-07-28T19:26:12;22.10;99.90
16301;DHT22;8258;51.020;4.248;2023-07-28T19:28:40;22.10;99.90
16301;DHT22;8258;51.020;4.248;2023-07-28T19:31:07;22.10;99.90
16301;DHT22;8258;51.020;4.248;2023-07-28T19:33:35;22.10;99.90
16301;DHT22;8258;51.020;4.248;2023-07-28T19:36:04;22.00;99.90
16301;DHT22;8258;51.020;4.248;2023-07-28T19:38:31;21.90;99.90
16301;DHT22;8258;51.020;4.248;2023-07-28T19:40:59;21.90;99.90
16301;DHT22;8258;51.020;4.248;2023-07-28T19:43:26;21.80;99.90
16301;DHT22;8258;51.020;4.248;2023-07-28T19:45:53;21.70;99.90
16301;DHT22;8258;51.020;4.248;2023-07-28T19:48:20;21.50;99.90
16301;DHT22;8258;51.020;4.248;2023-07-28T19:50:48;21.40;99.90
16301;DHT22;8258;51.020;4.248;2023-07-28T19:53:17;21.40;99.90
16301;DHT22;8258;51.020;4.248;2023-07-28T19:55:44;21.30;99.90
16301;DHT22;8258;51.020;4.248;2023-07-28T19:58:11;21.20;99.90
16301;DHT22;8258;51.020;4.248;2023-07-28T20:00:38;21.10;99.90
16301;DHT22;8258;51.020;4.248;2023-07-28T20:03:05;21.00;99.90
16301;DHT22;8258;51.020;4.248;2023-07-28T20:05:33;20.90;99.90
16301;DHT22;8258;51.020;4.248;2023-07-28T20:08:00;20.90;99.90
16301;DHT22;8258;51.020;4.248;2023-07-28T20:10:29;20.80;99.90
16301;DHT22;8258;51.020;4.248;2023-07-28T20:12:57;20.70;99.90
16301;DHT22;8258;51.020;4.248;2023-07-28T20:15:25;20.80;99.90
16301;DHT22;8258;51.020;4.248;2023-07-28T20:17:51;20.70;99.90
16301;DHT22;8258;51.020;4.248;2023-07-28T20:20:19;20.80;99.90